sensor_id;sensor_type;location;lat;lon;timestamp;P1;durP1;ratioP1;P2;durP2;ratioP2
2638;SDS011;1329;51.384;7.122;2022-12-05T00:00:50;28.23;;;19.83;;
2638;SDS011;1329;51.384;7.122;2022-12-05T00:03:19;27.43;;;20.20;;
2638;SDS011;1329;51.384;7.122;2022-12-05T00:05:46;28.80;;;20.53;;
2638;SDS011;1329;51.384;7.122;2022-12-05T00:08:13;26.10;;;19.27;;
2638;SDS011;1329;51.384;7.122;2022-12-05T00:10:40;26.83;;;20.30;;
2638;SDS011;1329;51.384;7.122;2022-12-05T00:13:07;29.80;;;19.90;;
2638;SDS011;1329;51.384;7.122;2022-12-05T00:15:35;26.80;;;18.80;;
2638;SDS011;1329;51.384;7.122;2022-12-05T00:18:05;25.73;;;19.00;;
2638;SDS011;1329;51.384;7.122;2022-12-05T00:20:33;29.10;;;20.50;;
2638;SDS011;1329;51.384;7.122;2022-12-05T00:23:00;27.17;;;20.73;;
2638;SDS011;1329;51.384;7.122;2022-12-05T00:25:27;25.27;;;20.10;;
2638;SDS011;1329;51.384;7.122;2022-12-05T00:27:54;26.43;;;19.37;;
2638;SDS011;1329;51.384;7.122;2022-12-05T00:30:21;23.73;;;18.73;;
2638;SDS011;1329;51.384;7.122;2022-12-05T00:32:48;26.07;;;20.20;;
2638;SDS011;1329;51.384;7.122;2022-12-05T00:35:16;26.23;;;19.93;;
2638;SDS011;1329;51.384;7.122;2022-12-05T00:37:43;27.40;;;19.90;;
2638;SDS011;1329;51.384;7.122;2022-12-05T00:40:11;24.40;;;18.87;;
2638;SDS011;1329;51.384;7.122;2022-12-05T00:42:38;26.13;;;19.80;;
2638;SDS011;1329;51.384;7.122;2022-12-05T00:45:06;26.63;;;19.50;;
2638;SDS011;1329;51.384;7.122;2022-12-05T00:47:34;25.97;;;19.37;;
2638;SDS011;1329;51.384;7.122;2022-12-05T00:50:02;27.07;;;20.33;;
2638;SDS011;1329;51.384;7.122;2022-12-05T00:52:31;27.60;;;19.60;;
2638;SDS011;1329;51.384;7.122;2022-12-05T00:54:58;26.17;;;20.10;;
2638;SDS011;1329;51.384;7.122;2022-12-05T00:57:25;28.87;;;20.53;;
2638;SDS011;1329;51.384;7.122;2022-12-05T00:59:52;27.20;;;19.40;;
2638;SDS011;1329;51.384;7.122;2022-12-05T01:02:19;24.63;;;19.63;;
2638;SDS011;1329;51.384;7.122;2022-12-05T01:04:46;27.40;;;20.73;;
2638;SDS011;1329;51.384;7.122;2022-12-05T01:07:13;26.60;;;20.50;;
2638;SDS011;1329;51.384;7.122;2022-12-05T01:09:41;26.53;;;20.33;;
2638;SDS011;1329;51.384;7.122;2022-12-05T01:12:08;23.97;;;19.50;;
2638;SDS011;1329;51.384;7.122;2022-12-05T01:14:35;27.07;;;19.83;;
2638;SDS011;1329;51.384;7.122;2022-12-05T01:17:03;28.17;;;20.13;;
2638;SDS011;1329;51.384;7.122;2022-12-05T01:19:30;27.10;;;21.00;;
2638;SDS011;1329;51.384;7.122;2022-12-05T01:21:58;26.07;;;20.20;;
2638;SDS011;1329;51.384;7.122;2022-12-05T01:24:26;27.83;;;20.93;;
2638;SDS011;1329;51.384;7.122;2022-12-05T01:26:57;26.10;;;19.37;;
2638;SDS011;1329;51.384;7.122;2022-12-05T01:29:24;27.53;;;20.60;;
2638;SDS011;1329;51.384;7.122;2022-12-05T01:31:51;25.03;;;19.33;;
2638;SDS011;1329;51.384;7.122;2022-12-05T01:34:22;25.53;;;19.77;;
2638;SDS011;1329;51.384;7.122;2022-12-05T01:36:49;25.37;;;19.30;;
2638;SDS011;1329;51.384;7.122;2022-12-05T01:39:16;29.17;;;20.43;;
2638;SDS011;1329;51.384;7.122;2022-12-05T01:41:45;25.63;;;19.20;;
2638;SDS011;1329;51.384;7.122;2022-12-05T01:47:32;26.23;;;20.10;;
2638;SDS011;1329;51.384;7.122;2022-12-05T01:50:01;26.57;;;19.87;;
2638;SDS011;1329;51.384;7.122;2022-12-05T01:52:30;27.23;;;20.80;;
2638;SDS011;1329;51.384;7.122;2022-12-05T01:54:59;25.77;;;19.47;;
2638;SDS011;1329;51.384;7.122;2022-12-05T01:57:32;26.00;;;20.00;;
2638;SDS011;1329;51.384;7.122;2022-12-05T02:00:02;26.43;;;19.10;;
2638;SDS011;1329;51.384;7.122;2022-12-05T02:02:35;26.27;;;20.07;;
2638;SDS011;1329;51.384;7.122;2022-12-05T02:05:05;24.40;;;18.97;;
2638;SDS011;1329;51.384;7.122;2022-12-05T02:07:37;25.23;;;19.47;;
2638;SDS011;1329;51.384;7.122;2022-12-05T02:10:07;25.90;;;19.17;;
2638;SDS011;1329;51.384;7.122;2022-12-05T02:12:35;26.90;;;19.33;;
2638;SDS011;1329;51.384;7.122;2022-12-05T02:15:23;25.43;;;19.50;;
2638;SDS011;1329;51.384;7.122;2022-12-05T02:18:08;24.20;;;19.10;;
2638;SDS011;1329;51.384;7.122;2022-12-05T02:20:57;25.90;;;18.50;;
2638;SDS011;1329;51.384;7.122;2022-12-05T02:23:50;24.20;;;18.00;;
2638;SDS011;1329;51.384;7.122;2022-12-05T02:26:45;24.67;;;19.00;;
2638;SDS011;1329;51.384;7.122;2022-12-05T02:32:38;24.23;;;17.67;;
2638;SDS011;1329;51.384;7.122;2022-12-05T02:35:21;24.93;;;19.60;;
2638;SDS011;1329;51.384;7.122;2022-12-05T02:38:01;25.83;;;20.30;;
2638;SDS011;1329;51.384;7.122;2022-12-05T02:40:39;25.03;;;19.67;;
2638;SDS011;1329;51.384;7.122;2022-12-05T02:43:15;26.57;;;19.57;;
2638;SDS011;1329;51.384;7.122;2022-12-05T02:45:50;25.13;;;18.73;;
2638;SDS011;1329;51.384;7.122;2022-12-05T02:48:19;23.37;;;19.73;;
2638;SDS011;1329;51.384;7.122;2022-12-05T02:50:51;26.13;;;19.33;;
2638;SDS011;1329;51.384;7.122;2022-12-05T02:53:19;24.43;;;18.47;;
2638;SDS011;1329;51.384;7.122;2022-12-05T02:55:48;25.97;;;18.80;;
2638;SDS011;1329;51.384;7.122;2022-12-05T02:58:18;24.87;;;19.27;;
2638;SDS011;1329;51.384;7.122;2022-12-05T03:00:54;26.87;;;18.97;;
2638;SDS011;1329;51.384;7.122;2022-12-05T03:03:25;25.23;;;18.87;;
2638;SDS011;1329;51.384;7.122;2022-12-05T03:05:54;23.93;;;18.30;;
2638;SDS011;1329;51.384;7.122;2022-12-05T03:08:29;24.37;;;18.27;;
2638;SDS011;1329;51.384;7.122;2022-12-05T03:11:01;26.73;;;19.70;;
2638;SDS011;1329;51.384;7.122;2022-12-05T03:13:31;24.87;;;18.87;;
2638;SDS011;1329;51.384;7.122;2022-12-05T03:16:06;23.40;;;18.27;;
2638;SDS011;1329;51.384;7.122;2022-12-05T03:18:39;23.93;;;19.03;;
2638;SDS011;1329;51.384;7.122;2022-12-05T03:21:13;23.27;;;17.90;;
2638;SDS011;1329;51.384;7.122;2022-12-05T03:23:51;22.03;;;17.87;;
2638;SDS011;1329;51.384;7.122;2022-12-05T03:26:27;26.17;;;19.27;;
2638;SDS011;1329;51.384;7.122;2022-12-05T03:29:23;21.80;;;17.57;;
2638;SDS011;1329;51.384;7.122;2022-12-05T03:32:04;21.93;;;18.20;;
2638;SDS011;1329;51.384;7.122;2022-12-05T03:34:41;23.10;;;17.77;;
2638;SDS011;1329;51.384;7.122;2022-12-05T03:37:19;21.67;;;17.63;;
2638;SDS011;1329;51.384;7.122;2022-12-05T03:39:54;23.27;;;18.13;;
2638;SDS011;1329;51.384;7.122;2022-12-05T03:42:32;21.83;;;17.83;;
2638;SDS011;1329;51.384;7.122;2022-12-05T03:45:02;21.60;;;17.57;;
2638;SDS011;1329;51.384;7.122;2022-12-05T03:47:39;25.50;;;18.47;;
2638;SDS011;1329;51.384;7.122;2022-12-05T03:50:13;25.30;;;18.97;;
2638;SDS011;1329;51.384;7.122;2022-12-05T03:52:48;25.40;;;19.03;;
2638;SDS011;1329;51.384;7.122;2022-12-05T03:55:20;25.50;;;18.67;;
2638;SDS011;1329;51.384;7.122;2022-12-05T03:57:52;24.27;;;18.40;;
2638;SDS011;1329;51.384;7.122;2022-12-05T04:00:24;22.93;;;17.37;;
2638;SDS011;1329;51.384;7.122;2022-12-05T04:02:58;23.27;;;18.93;;
2638;SDS011;1329;51.384;7.122;2022-12-05T04:05:34;24.57;;;18.40;;
2638;SDS011;1329;51.384;7.122;2022-12-05T04:08:07;24.50;;;18.37;;
2638;SDS011;1329;51.384;7.122;2022-12-05T04:10:42;22.37;;;18.00;;
2638;SDS011;1329;51.384;7.122;2022-12-05T04:13:15;22.20;;;17.90;;
2638;SDS011;1329;51.384;7.122;2022-12-05T04:15:48;26.67;;;18.37;;
2638;SDS011;1329;51.384;7.122;2022-12-05T04:18:40;22.60;;;17.80;;
2638;SDS011;1329;51.384;7.122;2022-12-05T04:21:13;22.53;;;17.97;;
2638;SDS011;1329;51.384;7.122;2022-12-05T04:24:00;21.77;;;16.70;;
2638;SDS011;1329;51.384;7.122;2022-12-05T04:26:45;22.37;;;17.00;;
2638;SDS011;1329;51.384;7.122;2022-12-05T04:29:23;23.70;;;18.00;;
2638;SDS011;1329;51.384;7.122;2022-12-05T04:31:56;23.27;;;17.87;;
2638;SDS011;1329;51.384;7.122;2022-12-05T04:34:27;24.73;;;18.47;;
2638;SDS011;1329;51.384;7.122;2022-12-05T04:36:58;22.63;;;18.23;;
2638;SDS011;1329;51.384;7.122;2022-12-05T04:39:32;23.60;;;18.23;;
2638;SDS011;1329;51.384;7.122;2022-12-05T04:42:05;24.67;;;18.60;;
2638;SDS011;1329;51.384;7.122;2022-12-05T04:44:37;24.40;;;18.63;;
2638;SDS011;1329;51.384;7.122;2022-12-05T04:47:10;23.60;;;17.87;;
2638;SDS011;1329;51.384;7.122;2022-12-05T04:49:41;24.87;;;18.30;;
2638;SDS011;1329;51.384;7.122;2022-12-05T04:52:10;23.27;;;17.67;;
2638;SDS011;1329;51.384;7.122;2022-12-05T04:54:39;23.43;;;18.20;;
2638;SDS011;1329;51.384;7.122;2022-12-05T04:57:11;21.90;;;17.30;;
2638;SDS011;1329;51.384;7.122;2022-12-05T04:59:42;23.93;;;17.27;;
2638;SDS011;1329;51.384;7.122;2022-12-05T05:02:11;22.60;;;18.40;;
2638;SDS011;1329;51.384;7.122;2022-12-05T05:04:45;23.30;;;19.00;;
2638;SDS011;1329;51.384;7.122;2022-12-05T05:07:16;22.27;;;17.37;;
2638;SDS011;1329;51.384;7.122;2022-12-05T05:09:44;23.77;;;17.70;;
2638;SDS011;1329;51.384;7.122;2022-12-05T05:12:12;20.50;;;17.33;;
2638;SDS011;1329;51.384;7.122;2022-12-05T05:14:39;21.83;;;17.00;;
2638;SDS011;1329;51.384;7.122;2022-12-05T05:17:06;23.17;;;17.90;;
2638;SDS011;1329;51.384;7.122;2022-12-05T05:19:33;21.23;;;17.40;;
2638;SDS011;1329;51.384;7.122;2022-12-05T05:22:02;22.30;;;17.90;;
2638;SDS011;1329;51.384;7.122;2022-12-05T05:24:29;22.43;;;17.63;;
2638;SDS011;1329;51.384;7.122;2022-12-05T05:26:56;24.20;;;17.63;;
2638;SDS011;1329;51.384;7.122;2022-12-05T05:29:23;22.23;;;17.40;;
2638;SDS011;1329;51.384;7.122;2022-12-05T05:31:50;22.20;;;16.93;;
2638;SDS011;1329;51.384;7.122;2022-12-05T05:34:19;22.33;;;17.43;;
2638;SDS011;1329;51.384;7.122;2022-12-05T05:36:50;20.60;;;17.07;;
2638;SDS011;1329;51.384;7.122;2022-12-05T05:39:19;19.73;;;16.40;;
2638;SDS011;1329;51.384;7.122;2022-12-05T05:41:46;20.87;;;17.10;;
2638;SDS011;1329;51.384;7.122;2022-12-05T05:44:13;21.80;;;17.40;;
2638;SDS011;1329;51.384;7.122;2022-12-05T05:46:40;21.57;;;17.47;;
2638;SDS011;1329;51.384;7.122;2022-12-05T05:49:08;22.17;;;18.13;;
2638;SDS011;1329;51.384;7.122;2022-12-05T05:51:36;19.90;;;16.20;;
2638;SDS011;1329;51.384;7.122;2022-12-05T05:54:03;20.57;;;16.70;;
2638;SDS011;1329;51.384;7.122;2022-12-05T05:56:31;20.40;;;17.70;;
2638;SDS011;1329;51.384;7.122;2022-12-05T05:59:00;22.23;;;17.07;;
2638;SDS011;1329;51.384;7.122;2022-12-05T06:01:29;21.80;;;16.80;;
2638;SDS011;1329;51.384;7.122;2022-12-05T06:03:57;19.30;;;16.13;;
2638;SDS011;1329;51.384;7.122;2022-12-05T06:06:24;19.67;;;16.40;;
2638;SDS011;1329;51.384;7.122;2022-12-05T06:08:52;21.30;;;16.53;;
2638;SDS011;1329;51.384;7.122;2022-12-05T06:11:20;21.03;;;16.67;;
2638;SDS011;1329;51.384;7.122;2022-12-05T06:13:50;21.33;;;16.23;;
2638;SDS011;1329;51.384;7.122;2022-12-05T06:16:18;18.90;;;16.83;;
2638;SDS011;1329;51.384;7.122;2022-12-05T06:18:46;20.20;;;16.43;;
2638;SDS011;1329;51.384;7.122;2022-12-05T06:21:13;19.03;;;16.07;;
2638;SDS011;1329;51.384;7.122;2022-12-05T06:23:40;21.00;;;16.43;;
2638;SDS011;1329;51.384;7.122;2022-12-05T06:26:09;21.57;;;17.53;;
2638;SDS011;1329;51.384;7.122;2022-12-05T06:28:39;22.27;;;17.27;;
2638;SDS011;1329;51.384;7.122;2022-12-05T06:31:10;21.67;;;16.87;;
2638;SDS011;1329;51.384;7.122;2022-12-05T06:33:40;21.53;;;17.63;;
2638;SDS011;1329;51.384;7.122;2022-12-05T06:36:08;20.97;;;16.87;;
2638;SDS011;1329;51.384;7.122;2022-12-05T06:38:38;21.93;;;17.60;;
2638;SDS011;1329;51.384;7.122;2022-12-05T06:41:06;20.27;;;16.00;;
2638;SDS011;1329;51.384;7.122;2022-12-05T06:43:35;20.27;;;16.80;;
2638;SDS011;1329;51.384;7.122;2022-12-05T06:46:03;19.83;;;16.40;;
2638;SDS011;1329;51.384;7.122;2022-12-05T06:48:32;19.33;;;16.30;;
2638;SDS011;1329;51.384;7.122;2022-12-05T06:51:00;20.47;;;17.57;;
2638;SDS011;1329;51.384;7.122;2022-12-05T06:53:27;19.37;;;16.27;;
2638;SDS011;1329;51.384;7.122;2022-12-05T06:55:55;22.60;;;16.47;;
2638;SDS011;1329;51.384;7.122;2022-12-05T06:58:22;20.43;;;16.80;;
2638;SDS011;1329;51.384;7.122;2022-12-05T07:00:50;21.17;;;16.97;;
2638;SDS011;1329;51.384;7.122;2022-12-05T07:03:36;18.70;;;16.10;;
2638;SDS011;1329;51.384;7.122;2022-12-05T07:06:04;19.33;;;16.07;;
2638;SDS011;1329;51.384;7.122;2022-12-05T07:08:33;22.07;;;16.80;;
2638;SDS011;1329;51.384;7.122;2022-12-05T07:11:01;20.60;;;16.43;;
2638;SDS011;1329;51.384;7.122;2022-12-05T07:13:29;21.23;;;16.93;;
2638;SDS011;1329;51.384;7.122;2022-12-05T07:15:56;19.67;;;16.83;;
2638;SDS011;1329;51.384;7.122;2022-12-05T07:18:25;21.07;;;16.47;;
2638;SDS011;1329;51.384;7.122;2022-12-05T07:20:58;20.73;;;17.10;;
2638;SDS011;1329;51.384;7.122;2022-12-05T07:23:26;19.70;;;16.63;;
2638;SDS011;1329;51.384;7.122;2022-12-05T07:25:54;20.43;;;16.10;;
2638;SDS011;1329;51.384;7.122;2022-12-05T07:28:23;20.17;;;16.30;;
2638;SDS011;1329;51.384;7.122;2022-12-05T07:30:57;19.63;;;15.80;;
2638;SDS011;1329;51.384;7.122;2022-12-05T07:33:26;20.03;;;16.33;;
2638;SDS011;1329;51.384;7.122;2022-12-05T07:35:58;20.17;;;16.33;;
2638;SDS011;1329;51.384;7.122;2022-12-05T07:38:26;18.90;;;16.47;;
2638;SDS011;1329;51.384;7.122;2022-12-05T07:40:54;17.97;;;15.47;;
2638;SDS011;1329;51.384;7.122;2022-12-05T07:43:21;19.77;;;16.40;;
2638;SDS011;1329;51.384;7.122;2022-12-05T07:45:48;20.33;;;17.10;;
2638;SDS011;1329;51.384;7.122;2022-12-05T07:48:15;20.10;;;15.53;;
2638;SDS011;1329;51.384;7.122;2022-12-05T07:50:43;20.13;;;16.57;;
2638;SDS011;1329;51.384;7.122;2022-12-05T07:53:11;20.73;;;17.10;;
2638;SDS011;1329;51.384;7.122;2022-12-05T07:55:41;19.40;;;16.80;;
2638;SDS011;1329;51.384;7.122;2022-12-05T07:58:08;19.10;;;16.83;;
2638;SDS011;1329;51.384;7.122;2022-12-05T08:00:35;20.57;;;16.97;;
2638;SDS011;1329;51.384;7.122;2022-12-05T08:03:03;19.77;;;16.23;;
2638;SDS011;1329;51.384;7.122;2022-12-05T08:05:32;19.93;;;16.37;;
2638;SDS011;1329;51.384;7.122;2022-12-05T08:07:59;18.77;;;16.73;;
2638;SDS011;1329;51.384;7.122;2022-12-05T08:10:28;17.83;;;15.40;;
2638;SDS011;1329;51.384;7.122;2022-12-05T08:12:55;19.50;;;16.20;;
2638;SDS011;1329;51.384;7.122;2022-12-05T08:15:23;18.20;;;15.47;;
2638;SDS011;1329;51.384;7.122;2022-12-05T08:17:50;18.53;;;16.00;;
2638;SDS011;1329;51.384;7.122;2022-12-05T08:20:17;18.23;;;15.77;;
2638;SDS011;1329;51.384;7.122;2022-12-05T08:22:45;19.00;;;15.87;;
2638;SDS011;1329;51.384;7.122;2022-12-05T08:25:12;19.73;;;16.40;;
2638;SDS011;1329;51.384;7.122;2022-12-05T08:27:41;18.83;;;15.90;;
2638;SDS011;1329;51.384;7.122;2022-12-05T08:30:10;17.93;;;16.03;;
2638;SDS011;1329;51.384;7.122;2022-12-05T08:32:37;21.23;;;16.07;;
2638;SDS011;1329;51.384;7.122;2022-12-05T08:35:05;17.67;;;15.77;;
2638;SDS011;1329;51.384;7.122;2022-12-05T08:37:33;19.73;;;15.60;;
2638;SDS011;1329;51.384;7.122;2022-12-05T08:40:06;19.37;;;15.57;;
2638;SDS011;1329;51.384;7.122;2022-12-05T08:42:34;17.40;;;15.13;;
2638;SDS011;1329;51.384;7.122;2022-12-05T08:45:03;18.87;;;15.93;;
2638;SDS011;1329;51.384;7.122;2022-12-05T08:47:32;18.50;;;15.43;;
2638;SDS011;1329;51.384;7.122;2022-12-05T08:50:00;17.77;;;14.93;;
2638;SDS011;1329;51.384;7.122;2022-12-05T08:52:28;19.57;;;15.23;;
2638;SDS011;1329;51.384;7.122;2022-12-05T08:54:55;17.70;;;15.73;;
2638;SDS011;1329;51.384;7.122;2022-12-05T08:57:23;17.80;;;15.63;;
2638;SDS011;1329;51.384;7.122;2022-12-05T08:59:50;19.07;;;16.13;;
2638;SDS011;1329;51.384;7.122;2022-12-05T09:02:19;18.40;;;15.77;;
2638;SDS011;1329;51.384;7.122;2022-12-05T09:04:48;18.00;;;15.60;;
2638;SDS011;1329;51.384;7.122;2022-12-05T09:07:17;19.00;;;16.70;;
2638;SDS011;1329;51.384;7.122;2022-12-05T09:09:44;18.17;;;16.20;;
2638;SDS011;1329;51.384;7.122;2022-12-05T09:12:12;21.77;;;16.57;;
2638;SDS011;1329;51.384;7.122;2022-12-05T09:14:39;20.70;;;16.57;;
2638;SDS011;1329;51.384;7.122;2022-12-05T09:17:06;22.53;;;17.40;;
2638;SDS011;1329;51.384;7.122;2022-12-05T09:19:35;21.93;;;17.37;;
2638;SDS011;1329;51.384;7.122;2022-12-05T09:22:03;20.77;;;17.40;;
2638;SDS011;1329;51.384;7.122;2022-12-05T09:24:31;25.53;;;18.87;;
2638;SDS011;1329;51.384;7.122;2022-12-05T09:26:59;24.50;;;18.97;;
2638;SDS011;1329;51.384;7.122;2022-12-05T09:29:26;18.57;;;16.50;;
2638;SDS011;1329;51.384;7.122;2022-12-05T09:31:53;18.17;;;16.07;;
2638;SDS011;1329;51.384;7.122;2022-12-05T09:34:20;18.67;;;16.40;;
2638;SDS011;1329;51.384;7.122;2022-12-05T09:36:51;18.43;;;16.47;;
2638;SDS011;1329;51.384;7.122;2022-12-05T09:39:22;16.77;;;14.93;;
2638;SDS011;1329;51.384;7.122;2022-12-05T09:41:59;17.10;;;15.30;;
2638;SDS011;1329;51.384;7.122;2022-12-05T09:45:09;16.47;;;14.77;;
2638;SDS011;1329;51.384;7.122;2022-12-05T09:47:45;16.43;;;14.73;;
2638;SDS011;1329;51.384;7.122;2022-12-05T09:50:19;16.13;;;14.53;;
2638;SDS011;1329;51.384;7.122;2022-12-05T09:55:45;16.20;;;14.47;;
2638;SDS011;1329;51.384;7.122;2022-12-05T09:58:20;15.63;;;13.97;;
2638;SDS011;1329;51.384;7.122;2022-12-05T10:00:57;16.03;;;14.33;;
2638;SDS011;1329;51.384;7.122;2022-12-05T10:03:32;15.10;;;13.60;;
2638;SDS011;1329;51.384;7.122;2022-12-05T10:06:12;15.23;;;13.63;;
2638;SDS011;1329;51.384;7.122;2022-12-05T10:08:54;16.10;;;13.93;;
2638;SDS011;1329;51.384;7.122;2022-12-05T10:11:40;15.13;;;13.60;;
2638;SDS011;1329;51.384;7.122;2022-12-05T10:14:18;15.63;;;14.03;;
2638;SDS011;1329;51.384;7.122;2022-12-05T10:16:54;16.03;;;14.33;;
2638;SDS011;1329;51.384;7.122;2022-12-05T10:19:27;14.97;;;13.47;;
2638;SDS011;1329;51.384;7.122;2022-12-05T10:22:00;15.43;;;13.83;;
2638;SDS011;1329;51.384;7.122;2022-12-05T10:24:32;15.37;;;13.87;;
2638;SDS011;1329;51.384;7.122;2022-12-05T10:27:05;15.43;;;13.80;;
2638;SDS011;1329;51.384;7.122;2022-12-05T10:29:38;15.77;;;14.17;;
2638;SDS011;1329;51.384;7.122;2022-12-05T10:32:12;16.57;;;14.80;;
2638;SDS011;1329;51.384;7.122;2022-12-05T10:34:44;16.37;;;14.67;;
2638;SDS011;1329;51.384;7.122;2022-12-05T10:37:13;17.17;;;14.37;;
2638;SDS011;1329;51.384;7.122;2022-12-05T10:39:44;15.87;;;14.20;;
2638;SDS011;1329;51.384;7.122;2022-12-05T10:42:12;16.30;;;14.57;;
2638;SDS011;1329;51.384;7.122;2022-12-05T10:44:43;16.53;;;14.93;;
2638;SDS011;1329;51.384;7.122;2022-12-05T10:47:11;16.93;;;15.17;;
2638;SDS011;1329;51.384;7.122;2022-12-05T10:49:39;16.80;;;15.00;;
2638;SDS011;1329;51.384;7.122;2022-12-05T10:52:08;17.53;;;14.70;;
2638;SDS011;1329;51.384;7.122;2022-12-05T10:54:39;15.60;;;13.97;;
2638;SDS011;1329;51.384;7.122;2022-12-05T10:57:19;16.73;;;14.50;;
2638;SDS011;1329;51.384;7.122;2022-12-05T10:59:48;16.37;;;14.60;;
2638;SDS011;1329;51.384;7.122;2022-12-05T11:02:19;15.73;;;13.97;;
2638;SDS011;1329;51.384;7.122;2022-12-05T11:04:51;16.10;;;14.40;;
2638;SDS011;1329;51.384;7.122;2022-12-05T11:07:23;16.43;;;14.73;;
2638;SDS011;1329;51.384;7.122;2022-12-05T11:09:59;16.40;;;14.57;;
2638;SDS011;1329;51.384;7.122;2022-12-05T11:12:35;16.47;;;14.77;;
2638;SDS011;1329;51.384;7.122;2022-12-05T11:15:05;15.87;;;14.20;;
2638;SDS011;1329;51.384;7.122;2022-12-05T11:17:48;15.20;;;13.70;;
2638;SDS011;1329;51.384;7.122;2022-12-05T11:20:37;20.70;;;18.60;;
2638;SDS011;1329;51.384;7.122;2022-12-05T11:23:16;17.47;;;15.77;;
2638;SDS011;1329;51.384;7.122;2022-12-05T11:25:54;16.27;;;14.57;;
2638;SDS011;1329;51.384;7.122;2022-12-05T11:28:30;16.33;;;14.27;;
2638;SDS011;1329;51.384;7.122;2022-12-05T11:31:01;15.90;;;14.27;;
2638;SDS011;1329;51.384;7.122;2022-12-05T11:33:33;15.10;;;13.63;;
2638;SDS011;1329;51.384;7.122;2022-12-05T11:36:03;15.80;;;14.17;;
2638;SDS011;1329;51.384;7.122;2022-12-05T11:38:38;14.90;;;13.30;;
2638;SDS011;1329;51.384;7.122;2022-12-05T11:41:17;15.43;;;13.83;;
2638;SDS011;1329;51.384;7.122;2022-12-05T11:44:17;14.43;;;13.03;;
2638;SDS011;1329;51.384;7.122;2022-12-05T11:47:09;14.03;;;12.63;;
2638;SDS011;1329;51.384;7.122;2022-12-05T11:49:57;14.17;;;12.77;;
2638;SDS011;1329;51.384;7.122;2022-12-05T11:52:50;14.30;;;12.80;;
2638;SDS011;1329;51.384;7.122;2022-12-05T11:55:27;14.63;;;13.13;;
2638;SDS011;1329;51.384;7.122;2022-12-05T11:58:12;13.70;;;12.30;;
2638;SDS011;1329;51.384;7.122;2022-12-05T12:01:09;13.63;;;12.33;;
2638;SDS011;1329;51.384;7.122;2022-12-05T12:03:52;14.23;;;12.73;;
2638;SDS011;1329;51.384;7.122;2022-12-05T12:06:56;14.73;;;13.23;;
2638;SDS011;1329;51.384;7.122;2022-12-05T12:09:41;14.77;;;13.27;;
2638;SDS011;1329;51.384;7.122;2022-12-05T12:12:21;14.23;;;12.83;;
2638;SDS011;1329;51.384;7.122;2022-12-05T12:15:02;15.77;;;14.23;;
2638;SDS011;1329;51.384;7.122;2022-12-05T12:17:50;15.77;;;14.23;;
2638;SDS011;1329;51.384;7.122;2022-12-05T12:20:26;15.67;;;14.07;;
2638;SDS011;1329;51.384;7.122;2022-12-05T12:23:14;15.00;;;13.50;;
2638;SDS011;1329;51.384;7.122;2022-12-05T12:26:07;15.00;;;13.50;;
2638;SDS011;1329;51.384;7.122;2022-12-05T12:28:42;16.07;;;14.43;;
2638;SDS011;1329;51.384;7.122;2022-12-05T12:31:22;16.87;;;15.17;;
2638;SDS011;1329;51.384;7.122;2022-12-05T12:34:06;16.03;;;14.33;;
2638;SDS011;1329;51.384;7.122;2022-12-05T12:36:57;16.93;;;15.00;;
2638;SDS011;1329;51.384;7.122;2022-12-05T12:39:34;15.53;;;13.93;;
2638;SDS011;1329;51.384;7.122;2022-12-05T12:42:15;16.43;;;14.83;;
2638;SDS011;1329;51.384;7.122;2022-12-05T12:48:05;17.40;;;15.70;;
2638;SDS011;1329;51.384;7.122;2022-12-05T12:50:45;18.27;;;16.47;;
2638;SDS011;1329;51.384;7.122;2022-12-05T12:53:30;20.20;;;18.10;;
2638;SDS011;1329;51.384;7.122;2022-12-05T12:56:20;17.30;;;15.50;;
2638;SDS011;1329;51.384;7.122;2022-12-05T12:59:05;16.43;;;14.73;;
2638;SDS011;1329;51.384;7.122;2022-12-05T13:09:37;18.10;;;16.20;;
2638;SDS011;1329;51.384;7.122;2022-12-05T13:25:12;16.90;;;15.20;;
2638;SDS011;1329;51.384;7.122;2022-12-05T13:32:53;15.93;;;14.33;;
2638;SDS011;1329;51.384;7.122;2022-12-05T13:35:25;15.97;;;14.33;;
2638;SDS011;1329;51.384;7.122;2022-12-05T13:38:26;13.80;;;12.43;;
2638;SDS011;1329;51.384;7.122;2022-12-05T13:41:14;14.43;;;13.03;;
2638;SDS011;1329;51.384;7.122;2022-12-05T13:43:59;13.43;;;12.13;;
2638;SDS011;1329;51.384;7.122;2022-12-05T13:46:37;14.73;;;13.23;;
2638;SDS011;1329;51.384;7.122;2022-12-05T13:49:13;14.40;;;13.00;;
2638;SDS011;1329;51.384;7.122;2022-12-05T13:51:45;15.27;;;13.67;;
2638;SDS011;1329;51.384;7.122;2022-12-05T13:54:14;14.97;;;13.27;;
2638;SDS011;1329;51.384;7.122;2022-12-05T13:56:47;15.57;;;13.87;;
2638;SDS011;1329;51.384;7.122;2022-12-05T14:02:49;16.47;;;14.77;;
2638;SDS011;1329;51.384;7.122;2022-12-05T14:11:21;16.80;;;15.00;;
2638;SDS011;1329;51.384;7.122;2022-12-05T14:13:50;16.13;;;14.43;;
2638;SDS011;1329;51.384;7.122;2022-12-05T14:19:33;17.23;;;15.30;;
2638;SDS011;1329;51.384;7.122;2022-12-05T14:22:27;16.20;;;14.50;;
2638;SDS011;1329;51.384;7.122;2022-12-05T14:25:20;15.40;;;13.80;;
2638;SDS011;1329;51.384;7.122;2022-12-05T14:27:59;15.00;;;13.50;;
2638;SDS011;1329;51.384;7.122;2022-12-05T14:30:44;15.23;;;13.63;;
2638;SDS011;1329;51.384;7.122;2022-12-05T14:33:28;16.27;;;14.57;;
2638;SDS011;1329;51.384;7.122;2022-12-05T14:35:56;16.93;;;15.23;;
2638;SDS011;1329;51.384;7.122;2022-12-05T14:38:32;17.00;;;15.20;;
2638;SDS011;1329;51.384;7.122;2022-12-05T14:41:10;17.07;;;15.37;;
2638;SDS011;1329;51.384;7.122;2022-12-05T14:43:40;17.13;;;15.40;;
2638;SDS011;1329;51.384;7.122;2022-12-05T14:46:15;15.93;;;14.33;;
2638;SDS011;1329;51.384;7.122;2022-12-05T14:48:48;16.00;;;14.50;;
2638;SDS011;1329;51.384;7.122;2022-12-05T14:54:21;17.57;;;15.70;;
2638;SDS011;1329;51.384;7.122;2022-12-05T14:56:50;17.17;;;15.43;;
2638;SDS011;1329;51.384;7.122;2022-12-05T14:59:30;16.47;;;14.77;;
2638;SDS011;1329;51.384;7.122;2022-12-05T15:02:13;17.37;;;15.67;;
2638;SDS011;1329;51.384;7.122;2022-12-05T15:04:49;16.80;;;15.17;;
2638;SDS011;1329;51.384;7.122;2022-12-05T15:07:24;18.43;;;16.43;;
2638;SDS011;1329;51.384;7.122;2022-12-05T15:09:58;17.93;;;16.03;;
2638;SDS011;1329;51.384;7.122;2022-12-05T15:12:32;19.17;;;17.17;;
2638;SDS011;1329;51.384;7.122;2022-12-05T15:15:12;17.87;;;16.03;;
2638;SDS011;1329;51.384;7.122;2022-12-05T15:17:46;17.40;;;15.53;;
2638;SDS011;1329;51.384;7.122;2022-12-05T15:20:19;17.63;;;15.83;;
2638;SDS011;1329;51.384;7.122;2022-12-05T15:22:52;15.73;;;14.13;;
2638;SDS011;1329;51.384;7.122;2022-12-05T15:25:24;15.83;;;13.60;;
2638;SDS011;1329;51.384;7.122;2022-12-05T15:27:57;15.47;;;13.87;;
2638;SDS011;1329;51.384;7.122;2022-12-05T15:30:28;15.60;;;14.00;;
2638;SDS011;1329;51.384;7.122;2022-12-05T15:33:00;16.80;;;15.00;;
2638;SDS011;1329;51.384;7.122;2022-12-05T15:35:28;15.53;;;13.93;;
2638;SDS011;1329;51.384;7.122;2022-12-05T15:37:58;16.23;;;14.30;;
2638;SDS011;1329;51.384;7.122;2022-12-05T15:40:34;15.77;;;14.13;;
2638;SDS011;1329;51.384;7.122;2022-12-05T15:43:20;15.07;;;13.57;;
2638;SDS011;1329;51.384;7.122;2022-12-05T15:46:07;16.13;;;14.53;;
2638;SDS011;1329;51.384;7.122;2022-12-05T15:48:49;15.10;;;13.70;;
2638;SDS011;1329;51.384;7.122;2022-12-05T15:51:17;15.03;;;13.60;;
2638;SDS011;1329;51.384;7.122;2022-12-05T15:53:47;14.40;;;13.10;;
2638;SDS011;1329;51.384;7.122;2022-12-05T15:56:20;14.47;;;13.07;;
2638;SDS011;1329;51.384;7.122;2022-12-05T15:58:55;14.30;;;12.87;;
2638;SDS011;1329;51.384;7.122;2022-12-05T16:01:29;14.40;;;12.97;;
2638;SDS011;1329;51.384;7.122;2022-12-05T16:04:01;16.53;;;14.50;;
2638;SDS011;1329;51.384;7.122;2022-12-05T16:06:34;15.40;;;13.80;;
2638;SDS011;1329;51.384;7.122;2022-12-05T16:09:07;13.10;;;11.80;;
2638;SDS011;1329;51.384;7.122;2022-12-05T16:11:48;14.50;;;13.03;;
2638;SDS011;1329;51.384;7.122;2022-12-05T16:14:17;13.83;;;12.43;;
2638;SDS011;1329;51.384;7.122;2022-12-05T16:16:45;13.80;;;12.50;;